sensor_id;sensor_type;location;lat;lon;timestamp;P1;durP1;ratioP1;P2;durP2;ratioP2
20497;SDS011;10407;53.238;10.448;2022-11-14T00:00:52;45.83;;;23.23;;
20497;SDS011;10407;53.238;10.448;2022-11-14T00:03:20;52.30;;;25.30;;
20497;SDS011;10407;53.238;10.448;2022-11-14T00:05:47;51.37;;;22.73;;
20497;SDS011;10407;53.238;10.448;2022-11-14T00:08:16;62.47;;;27.43;;
20497;SDS011;10407;53.238;10.448;2022-11-14T00:10:46;53.03;;;25.57;;
20497;SDS011;10407;53.238;10.448;2022-11-14T00:13:15;45.97;;;24.50;;
20497;SDS011;10407;53.238;10.448;2022-11-14T00:15:43;53.13;;;26.10;;
20497;SDS011;10407;53.238;10.448;2022-11-14T00:18:15;52.90;;;26.13;;
20497;SDS011;10407;53.238;10.448;2022-11-14T00:20:46;53.83;;;25.53;;
20497;SDS011;10407;53.238;10.448;2022-11-14T00:23:14;56.67;;;26.43;;
20497;SDS011;10407;53.238;10.448;2022-11-14T00:25:42;55.37;;;25.13;;
20497;SDS011;10407;53.238;10.448;2022-11-14T00:28:11;45.83;;;25.27;;
20497;SDS011;10407;53.238;10.448;2022-11-14T00:30:39;56.03;;;29.20;;
20497;SDS011;10407;53.238;10.448;2022-11-14T00:33:07;50.17;;;25.07;;
20497;SDS011;10407;53.238;10.448;2022-11-14T00:35:34;55.83;;;25.63;;
20497;SDS011;10407;53.238;10.448;2022-11-14T00:38:02;55.73;;;26.90;;
20497;SDS011;10407;53.238;10.448;2022-11-14T00:40:29;52.40;;;25.30;;
20497;SDS011;10407;53.238;10.448;2022-11-14T00:42:57;54.83;;;26.47;;
20497;SDS011;10407;53.238;10.448;2022-11-14T00:45:24;53.53;;;28.30;;
20497;SDS011;10407;53.238;10.448;2022-11-14T00:47:52;55.07;;;27.13;;
20497;SDS011;10407;53.238;10.448;2022-11-14T00:50:19;47.93;;;25.17;;
20497;SDS011;10407;53.238;10.448;2022-11-14T00:52:47;61.87;;;28.30;;
20497;SDS011;10407;53.238;10.448;2022-11-14T00:55:14;56.07;;;25.43;;
20497;SDS011;10407;53.238;10.448;2022-11-14T00:57:42;51.90;;;24.80;;
20497;SDS011;10407;53.238;10.448;2022-11-14T01:00:10;52.27;;;26.60;;
20497;SDS011;10407;53.238;10.448;2022-11-14T01:02:39;50.40;;;26.87;;
20497;SDS011;10407;53.238;10.448;2022-11-14T01:05:06;47.80;;;26.03;;
20497;SDS011;10407;53.238;10.448;2022-11-14T01:07:34;56.97;;;29.30;;
20497;SDS011;10407;53.238;10.448;2022-11-14T01:10:02;47.97;;;24.97;;
20497;SDS011;10407;53.238;10.448;2022-11-14T01:12:30;61.50;;;28.90;;
20497;SDS011;10407;53.238;10.448;2022-11-14T01:14:59;60.57;;;29.77;;
20497;SDS011;10407;53.238;10.448;2022-11-14T01:17:26;53.40;;;27.47;;
20497;SDS011;10407;53.238;10.448;2022-11-14T01:19:54;53.30;;;25.00;;
20497;SDS011;10407;53.238;10.448;2022-11-14T01:22:21;60.00;;;27.67;;
20497;SDS011;10407;53.238;10.448;2022-11-14T01:24:49;56.17;;;27.70;;
20497;SDS011;10407;53.238;10.448;2022-11-14T01:27:16;52.57;;;26.30;;
20497;SDS011;10407;53.238;10.448;2022-11-14T01:29:44;56.17;;;28.30;;
20497;SDS011;10407;53.238;10.448;2022-11-14T01:32:11;50.73;;;26.97;;
20497;SDS011;10407;53.238;10.448;2022-11-14T01:34:39;55.03;;;27.10;;
20497;SDS011;10407;53.238;10.448;2022-11-14T01:37:06;57.60;;;28.93;;
20497;SDS011;10407;53.238;10.448;2022-11-14T01:39:34;61.50;;;30.30;;
20497;SDS011;10407;53.238;10.448;2022-11-14T01:42:01;57.07;;;28.63;;
20497;SDS011;10407;53.238;10.448;2022-11-14T01:44:45;56.43;;;26.10;;
20497;SDS011;10407;53.238;10.448;2022-11-14T01:47:16;58.23;;;27.10;;
20497;SDS011;10407;53.238;10.448;2022-11-14T01:49:52;53.23;;;26.23;;
20497;SDS011;10407;53.238;10.448;2022-11-14T01:52:22;55.10;;;28.70;;
20497;SDS011;10407;53.238;10.448;2022-11-14T01:54:52;59.50;;;28.57;;
20497;SDS011;10407;53.238;10.448;2022-11-14T01:57:24;54.90;;;29.93;;
20497;SDS011;10407;53.238;10.448;2022-11-14T01:59:53;64.53;;;28.60;;
20497;SDS011;10407;53.238;10.448;2022-11-14T02:02:24;59.30;;;27.90;;
20497;SDS011;10407;53.238;10.448;2022-11-14T02:04:55;62.53;;;27.20;;
20497;SDS011;10407;53.238;10.448;2022-11-14T02:07:28;54.03;;;26.47;;
20497;SDS011;10407;53.238;10.448;2022-11-14T02:09:59;38.93;;;20.70;;
20497;SDS011;10407;53.238;10.448;2022-11-14T02:12:29;50.40;;;25.83;;
20497;SDS011;10407;53.238;10.448;2022-11-14T02:14:58;57.50;;;29.57;;
20497;SDS011;10407;53.238;10.448;2022-11-14T02:17:26;52.10;;;27.93;;
20497;SDS011;10407;53.238;10.448;2022-11-14T02:20:05;58.73;;;27.53;;
20497;SDS011;10407;53.238;10.448;2022-11-14T02:22:30;59.43;;;29.13;;
20497;SDS011;10407;53.238;10.448;2022-11-14T02:24:58;63.70;;;28.93;;
20497;SDS011;10407;53.238;10.448;2022-11-14T02:27:25;60.50;;;30.40;;
20497;SDS011;10407;53.238;10.448;2022-11-14T02:29:53;58.50;;;26.70;;
20497;SDS011;10407;53.238;10.448;2022-11-14T02:32:20;57.00;;;29.63;;
20497;SDS011;10407;53.238;10.448;2022-11-14T02:34:48;54.40;;;28.37;;
20497;SDS011;10407;53.238;10.448;2022-11-14T02:37:15;62.80;;;30.77;;
20497;SDS011;10407;53.238;10.448;2022-11-14T02:39:43;62.00;;;31.00;;
20497;SDS011;10407;53.238;10.448;2022-11-14T02:42:10;59.47;;;30.90;;
20497;SDS011;10407;53.238;10.448;2022-11-14T02:44:38;61.87;;;30.80;;
20497;SDS011;10407;53.238;10.448;2022-11-14T02:47:05;64.50;;;28.60;;
20497;SDS011;10407;53.238;10.448;2022-11-14T02:49:33;51.57;;;28.00;;
20497;SDS011;10407;53.238;10.448;2022-11-14T02:52:00;65.03;;;29.40;;
20497;SDS011;10407;53.238;10.448;2022-11-14T02:54:28;58.43;;;29.10;;
20497;SDS011;10407;53.238;10.448;2022-11-14T02:56:56;59.67;;;29.67;;
20497;SDS011;10407;53.238;10.448;2022-11-14T02:59:23;60.37;;;28.73;;
20497;SDS011;10407;53.238;10.448;2022-11-14T03:01:51;65.20;;;31.43;;
20497;SDS011;10407;53.238;10.448;2022-11-14T03:04:18;71.00;;;31.47;;
20497;SDS011;10407;53.238;10.448;2022-11-14T03:06:46;63.37;;;30.70;;
20497;SDS011;10407;53.238;10.448;2022-11-14T03:09:13;57.10;;;27.17;;
20497;SDS011;10407;53.238;10.448;2022-11-14T03:11:43;61.80;;;30.30;;
20497;SDS011;10407;53.238;10.448;2022-11-14T03:14:10;65.90;;;32.17;;
20497;SDS011;10407;53.238;10.448;2022-11-14T03:16:38;59.37;;;26.47;;
20497;SDS011;10407;53.238;10.448;2022-11-14T03:19:05;54.87;;;29.63;;
20497;SDS011;10407;53.238;10.448;2022-11-14T03:21:33;65.63;;;29.67;;
20497;SDS011;10407;53.238;10.448;2022-11-14T03:24:00;68.17;;;30.03;;
20497;SDS011;10407;53.238;10.448;2022-11-14T03:26:28;62.10;;;27.70;;
20497;SDS011;10407;53.238;10.448;2022-11-14T03:28:55;55.73;;;29.50;;
20497;SDS011;10407;53.238;10.448;2022-11-14T03:31:23;56.90;;;30.23;;
20497;SDS011;10407;53.238;10.448;2022-11-14T03:33:50;54.17;;;26.77;;
20497;SDS011;10407;53.238;10.448;2022-11-14T03:36:18;66.37;;;31.10;;
20497;SDS011;10407;53.238;10.448;2022-11-14T03:38:46;58.90;;;27.17;;
20497;SDS011;10407;53.238;10.448;2022-11-14T03:41:15;58.13;;;28.70;;
20497;SDS011;10407;53.238;10.448;2022-11-14T03:43:43;59.57;;;30.73;;
20497;SDS011;10407;53.238;10.448;2022-11-14T03:46:10;56.17;;;28.60;;
20497;SDS011;10407;53.238;10.448;2022-11-14T03:48:38;57.67;;;28.67;;
20497;SDS011;10407;53.238;10.448;2022-11-14T03:51:05;54.50;;;29.50;;
20497;SDS011;10407;53.238;10.448;2022-11-14T03:53:33;58.33;;;29.00;;
20497;SDS011;10407;53.238;10.448;2022-11-14T03:56:00;59.67;;;28.70;;
20497;SDS011;10407;53.238;10.448;2022-11-14T03:58:28;61.40;;;31.90;;
20497;SDS011;10407;53.238;10.448;2022-11-14T04:00:56;61.33;;;28.00;;
20497;SDS011;10407;53.238;10.448;2022-11-14T04:03:23;66.23;;;30.70;;
20497;SDS011;10407;53.238;10.448;2022-11-14T04:05:51;60.63;;;28.17;;
20497;SDS011;10407;53.238;10.448;2022-11-14T04:08:19;58.43;;;26.67;;
20497;SDS011;10407;53.238;10.448;2022-11-14T04:10:46;55.63;;;27.90;;
20497;SDS011;10407;53.238;10.448;2022-11-14T04:13:14;60.60;;;30.43;;
20497;SDS011;10407;53.238;10.448;2022-11-14T04:15:42;58.53;;;28.40;;
20497;SDS011;10407;53.238;10.448;2022-11-14T04:18:09;60.00;;;28.00;;
20497;SDS011;10407;53.238;10.448;2022-11-14T04:20:37;62.13;;;29.70;;
20497;SDS011;10407;53.238;10.448;2022-11-14T04:23:05;61.33;;;31.83;;
20497;SDS011;10407;53.238;10.448;2022-11-14T04:25:32;59.40;;;30.27;;
20497;SDS011;10407;53.238;10.448;2022-11-14T04:28:00;70.47;;;31.80;;
20497;SDS011;10407;53.238;10.448;2022-11-14T04:30:28;62.87;;;29.17;;
20497;SDS011;10407;53.238;10.448;2022-11-14T04:32:56;60.90;;;30.10;;
20497;SDS011;10407;53.238;10.448;2022-11-14T04:35:23;61.53;;;29.00;;
20497;SDS011;10407;53.238;10.448;2022-11-14T04:37:51;56.20;;;28.00;;
20497;SDS011;10407;53.238;10.448;2022-11-14T04:40:18;67.03;;;30.73;;
20497;SDS011;10407;53.238;10.448;2022-11-14T04:42:47;64.80;;;32.20;;
20497;SDS011;10407;53.238;10.448;2022-11-14T04:45:14;66.03;;;31.60;;
20497;SDS011;10407;53.238;10.448;2022-11-14T04:47:42;59.73;;;31.47;;
20497;SDS011;10407;53.238;10.448;2022-11-14T04:50:10;55.37;;;27.67;;
20497;SDS011;10407;53.238;10.448;2022-11-14T04:52:37;59.73;;;29.10;;
20497;SDS011;10407;53.238;10.448;2022-11-14T04:55:05;62.13;;;32.47;;
20497;SDS011;10407;53.238;10.448;2022-11-14T04:57:32;62.77;;;31.20;;
20497;SDS011;10407;53.238;10.448;2022-11-14T05:00:00;70.33;;;31.57;;
20497;SDS011;10407;53.238;10.448;2022-11-14T05:02:29;58.00;;;29.03;;
20497;SDS011;10407;53.238;10.448;2022-11-14T05:04:57;60.13;;;29.27;;
20497;SDS011;10407;53.238;10.448;2022-11-14T05:07:25;61.53;;;32.47;;
20497;SDS011;10407;53.238;10.448;2022-11-14T05:09:52;61.10;;;28.80;;
20497;SDS011;10407;53.238;10.448;2022-11-14T05:12:20;65.67;;;33.50;;
20497;SDS011;10407;53.238;10.448;2022-11-14T05:14:47;64.63;;;30.70;;
20497;SDS011;10407;53.238;10.448;2022-11-14T05:17:15;55.53;;;29.83;;
20497;SDS011;10407;53.238;10.448;2022-11-14T05:19:42;56.37;;;29.10;;
20497;SDS011;10407;53.238;10.448;2022-11-14T05:22:10;61.80;;;30.77;;
20497;SDS011;10407;53.238;10.448;2022-11-14T05:24:37;65.30;;;30.10;;
20497;SDS011;10407;53.238;10.448;2022-11-14T05:27:05;63.50;;;28.90;;
20497;SDS011;10407;53.238;10.448;2022-11-14T05:29:33;74.93;;;32.53;;
20497;SDS011;10407;53.238;10.448;2022-11-14T05:32:00;69.30;;;31.80;;
20497;SDS011;10407;53.238;10.448;2022-11-14T05:34:28;67.53;;;29.10;;
20497;SDS011;10407;53.238;10.448;2022-11-14T05:36:55;70.87;;;33.37;;
20497;SDS011;10407;53.238;10.448;2022-11-14T05:39:23;70.53;;;33.13;;
20497;SDS011;10407;53.238;10.448;2022-11-14T05:41:50;72.53;;;32.10;;
20497;SDS011;10407;53.238;10.448;2022-11-14T05:44:18;68.97;;;32.23;;
20497;SDS011;10407;53.238;10.448;2022-11-14T05:46:45;67.83;;;31.70;;
20497;SDS011;10407;53.238;10.448;2022-11-14T05:49:13;69.00;;;30.00;;
20497;SDS011;10407;53.238;10.448;2022-11-14T05:51:40;70.23;;;34.53;;
20497;SDS011;10407;53.238;10.448;2022-11-14T05:54:08;73.27;;;31.90;;
20497;SDS011;10407;53.238;10.448;2022-11-14T05:56:35;77.47;;;34.13;;
20497;SDS011;10407;53.238;10.448;2022-11-14T05:59:03;73.90;;;33.00;;
20497;SDS011;10407;53.238;10.448;2022-11-14T06:01:30;77.77;;;33.60;;
20497;SDS011;10407;53.238;10.448;2022-11-14T06:03:58;76.23;;;34.50;;
20497;SDS011;10407;53.238;10.448;2022-11-14T06:06:25;78.13;;;32.43;;
20497;SDS011;10407;53.238;10.448;2022-11-14T06:08:53;70.40;;;33.07;;
20497;SDS011;10407;53.238;10.448;2022-11-14T06:11:20;69.90;;;32.60;;
20497;SDS011;10407;53.238;10.448;2022-11-14T06:13:48;80.17;;;35.03;;
20497;SDS011;10407;53.238;10.448;2022-11-14T06:16:17;70.23;;;31.07;;
20497;SDS011;10407;53.238;10.448;2022-11-14T06:18:45;71.93;;;33.13;;
20497;SDS011;10407;53.238;10.448;2022-11-14T06:21:16;77.80;;;33.17;;
20497;SDS011;10407;53.238;10.448;2022-11-14T06:23:45;81.10;;;31.57;;
20497;SDS011;10407;53.238;10.448;2022-11-14T06:26:27;71.17;;;32.57;;
20497;SDS011;10407;53.238;10.448;2022-11-14T06:28:55;74.27;;;33.37;;
20497;SDS011;10407;53.238;10.448;2022-11-14T06:31:24;73.53;;;33.30;;
20497;SDS011;10407;53.238;10.448;2022-11-14T06:33:52;71.10;;;32.07;;
20497;SDS011;10407;53.238;10.448;2022-11-14T06:36:21;72.30;;;29.50;;
20497;SDS011;10407;53.238;10.448;2022-11-14T06:38:49;61.03;;;27.70;;
20497;SDS011;10407;53.238;10.448;2022-11-14T06:41:17;75.07;;;31.40;;
20497;SDS011;10407;53.238;10.448;2022-11-14T06:43:47;78.30;;;29.77;;
20497;SDS011;10407;53.238;10.448;2022-11-14T06:46:19;64.47;;;30.00;;
20497;SDS011;10407;53.238;10.448;2022-11-14T06:48:48;61.13;;;29.10;;
20497;SDS011;10407;53.238;10.448;2022-11-14T06:51:17;67.33;;;31.63;;
20497;SDS011;10407;53.238;10.448;2022-11-14T06:53:45;63.90;;;31.37;;
20497;SDS011;10407;53.238;10.448;2022-11-14T06:56:13;67.73;;;30.50;;
20497;SDS011;10407;53.238;10.448;2022-11-14T06:58:47;68.37;;;29.83;;
20497;SDS011;10407;53.238;10.448;2022-11-14T07:01:12;67.43;;;31.37;;
20497;SDS011;10407;53.238;10.448;2022-11-14T07:03:42;58.90;;;25.90;;
20497;SDS011;10407;53.238;10.448;2022-11-14T07:06:14;68.07;;;30.73;;
20497;SDS011;10407;53.238;10.448;2022-11-14T07:08:43;81.30;;;31.17;;
20497;SDS011;10407;53.238;10.448;2022-11-14T07:11:11;68.90;;;29.77;;
20497;SDS011;10407;53.238;10.448;2022-11-14T07:13:56;70.30;;;29.13;;
20497;SDS011;10407;53.238;10.448;2022-11-14T07:16:28;66.27;;;30.20;;
20497;SDS011;10407;53.238;10.448;2022-11-14T07:19:00;74.90;;;33.37;;
20497;SDS011;10407;53.238;10.448;2022-11-14T07:21:29;73.17;;;32.47;;
20497;SDS011;10407;53.238;10.448;2022-11-14T07:23:57;63.53;;;29.23;;
20497;SDS011;10407;53.238;10.448;2022-11-14T07:26:25;75.20;;;29.87;;
20497;SDS011;10407;53.238;10.448;2022-11-14T07:28:52;71.33;;;32.13;;
20497;SDS011;10407;53.238;10.448;2022-11-14T07:31:20;65.00;;;29.30;;
20497;SDS011;10407;53.238;10.448;2022-11-14T07:33:47;72.00;;;29.30;;
20497;SDS011;10407;53.238;10.448;2022-11-14T07:36:15;74.07;;;33.27;;
20497;SDS011;10407;53.238;10.448;2022-11-14T07:38:42;66.13;;;31.03;;
20497;SDS011;10407;53.238;10.448;2022-11-14T07:41:11;68.87;;;31.00;;
20497;SDS011;10407;53.238;10.448;2022-11-14T07:43:40;69.03;;;29.90;;
20497;SDS011;10407;53.238;10.448;2022-11-14T07:46:13;70.83;;;31.90;;
20497;SDS011;10407;53.238;10.448;2022-11-14T07:48:42;63.30;;;28.57;;
20497;SDS011;10407;53.238;10.448;2022-11-14T07:51:16;64.03;;;26.47;;
20497;SDS011;10407;53.238;10.448;2022-11-14T07:53:45;66.30;;;29.17;;
20497;SDS011;10407;53.238;10.448;2022-11-14T07:56:13;76.30;;;31.10;;
20497;SDS011;10407;53.238;10.448;2022-11-14T07:58:41;68.70;;;30.87;;
20497;SDS011;10407;53.238;10.448;2022-11-14T08:01:09;68.67;;;29.50;;
20497;SDS011;10407;53.238;10.448;2022-11-14T08:03:38;65.90;;;30.63;;
20497;SDS011;10407;53.238;10.448;2022-11-14T08:06:07;66.43;;;29.13;;
20497;SDS011;10407;53.238;10.448;2022-11-14T08:08:37;70.80;;;32.60;;
20497;SDS011;10407;53.238;10.448;2022-11-14T08:11:05;65.07;;;30.73;;
20497;SDS011;10407;53.238;10.448;2022-11-14T08:13:33;65.50;;;30.53;;
20497;SDS011;10407;53.238;10.448;2022-11-14T08:16:04;64.80;;;31.27;;
20497;SDS011;10407;53.238;10.448;2022-11-14T08:18:34;71.03;;;29.20;;
20497;SDS011;10407;53.238;10.448;2022-11-14T08:21:05;61.07;;;28.40;;
20497;SDS011;10407;53.238;10.448;2022-11-14T08:23:32;69.50;;;31.97;;
20497;SDS011;10407;53.238;10.448;2022-11-14T08:26:00;67.57;;;27.47;;
20497;SDS011;10407;53.238;10.448;2022-11-14T08:28:28;59.60;;;29.77;;
20497;SDS011;10407;53.238;10.448;2022-11-14T08:31:02;55.33;;;27.20;;
20497;SDS011;10407;53.238;10.448;2022-11-14T08:33:30;64.23;;;30.07;;
20497;SDS011;10407;53.238;10.448;2022-11-14T08:36:01;59.33;;;27.57;;
20497;SDS011;10407;53.238;10.448;2022-11-14T08:38:30;60.80;;;29.37;;
20497;SDS011;10407;53.238;10.448;2022-11-14T08:40:59;58.37;;;27.63;;
20497;SDS011;10407;53.238;10.448;2022-11-14T08:43:28;54.17;;;27.53;;
20497;SDS011;10407;53.238;10.448;2022-11-14T08:46:03;62.83;;;29.80;;
20497;SDS011;10407;53.238;10.448;2022-11-14T08:48:26;62.20;;;30.67;;
20497;SDS011;10407;53.238;10.448;2022-11-14T08:50:55;58.93;;;28.70;;
20497;SDS011;10407;53.238;10.448;2022-11-14T08:53:22;62.13;;;28.70;;
20497;SDS011;10407;53.238;10.448;2022-11-14T08:55:50;52.67;;;24.87;;
20497;SDS011;10407;53.238;10.448;2022-11-14T08:58:17;53.73;;;25.60;;
20497;SDS011;10407;53.238;10.448;2022-11-14T09:00:45;60.50;;;26.90;;
20497;SDS011;10407;53.238;10.448;2022-11-14T09:03:12;61.70;;;28.70;;
20497;SDS011;10407;53.238;10.448;2022-11-14T09:05:41;55.93;;;28.60;;
20497;SDS011;10407;53.238;10.448;2022-11-14T09:08:09;55.30;;;24.53;;
20497;SDS011;10407;53.238;10.448;2022-11-14T09:10:37;58.60;;;28.93;;
20497;SDS011;10407;53.238;10.448;2022-11-14T09:13:05;61.07;;;29.07;;
20497;SDS011;10407;53.238;10.448;2022-11-14T09:15:32;62.13;;;28.83;;
20497;SDS011;10407;53.238;10.448;2022-11-14T09:18:00;63.33;;;30.23;;
20497;SDS011;10407;53.238;10.448;2022-11-14T09:20:27;62.20;;;30.83;;
20497;SDS011;10407;53.238;10.448;2022-11-14T09:22:57;58.33;;;27.03;;
20497;SDS011;10407;53.238;10.448;2022-11-14T09:25:25;58.93;;;28.50;;
20497;SDS011;10407;53.238;10.448;2022-11-14T09:27:54;64.30;;;28.27;;
20497;SDS011;10407;53.238;10.448;2022-11-14T09:30:22;57.23;;;28.87;;
20497;SDS011;10407;53.238;10.448;2022-11-14T09:32:50;59.87;;;30.37;;
20497;SDS011;10407;53.238;10.448;2022-11-14T09:35:17;64.37;;;29.60;;
20497;SDS011;10407;53.238;10.448;2022-11-14T09:37:45;53.70;;;25.03;;
20497;SDS011;10407;53.238;10.448;2022-11-14T09:40:12;56.43;;;28.57;;
20497;SDS011;10407;53.238;10.448;2022-11-14T09:43:23;63.93;;;29.37;;
20497;SDS011;10407;53.238;10.448;2022-11-14T09:45:22;53.60;;;26.60;;
20497;SDS011;10407;53.238;10.448;2022-11-14T09:47:52;62.83;;;28.73;;
20497;SDS011;10407;53.238;10.448;2022-11-14T09:50:25;63.13;;;27.40;;
20497;SDS011;10407;53.238;10.448;2022-11-14T09:52:57;56.27;;;27.20;;
20497;SDS011;10407;53.238;10.448;2022-11-14T09:55:31;60.20;;;28.00;;
20497;SDS011;10407;53.238;10.448;2022-11-14T09:58:00;52.73;;;25.87;;
20497;SDS011;10407;53.238;10.448;2022-11-14T10:00:35;58.37;;;26.90;;
20497;SDS011;10407;53.238;10.448;2022-11-14T10:06:10;52.60;;;25.97;;
20497;SDS011;10407;53.238;10.448;2022-11-14T10:14:39;55.13;;;26.00;;
20497;SDS011;10407;53.238;10.448;2022-11-14T10:19:59;55.67;;;26.67;;
20497;SDS011;10407;53.238;10.448;2022-11-14T10:25:21;47.83;;;24.63;;
20497;SDS011;10407;53.238;10.448;2022-11-14T10:27:57;53.43;;;26.20;;
20497;SDS011;10407;53.238;10.448;2022-11-14T10:30:34;52.90;;;23.83;;
20497;SDS011;10407;53.238;10.448;2022-11-14T10:33:18;58.50;;;28.27;;
20497;SDS011;10407;53.238;10.448;2022-11-14T10:38:53;52.37;;;24.20;;
20497;SDS011;10407;53.238;10.448;2022-11-14T10:41:21;55.80;;;27.40;;
20497;SDS011;10407;53.238;10.448;2022-11-14T10:43:51;49.17;;;24.70;;
20497;SDS011;10407;53.238;10.448;2022-11-14T10:46:25;48.43;;;24.17;;
20497;SDS011;10407;53.238;10.448;2022-11-14T10:48:54;52.27;;;25.90;;
20497;SDS011;10407;53.238;10.448;2022-11-14T10:56:48;49.23;;;24.40;;
20497;SDS011;10407;53.238;10.448;2022-11-14T10:59:17;49.43;;;23.93;;
20497;SDS011;10407;53.238;10.448;2022-11-14T11:04:23;44.40;;;22.57;;
20497;SDS011;10407;53.238;10.448;2022-11-14T11:09:39;49.53;;;24.60;;
20497;SDS011;10407;53.238;10.448;2022-11-14T11:12:45;48.83;;;25.60;;
20497;SDS011;10407;53.238;10.448;2022-11-14T11:20:36;46.47;;;22.90;;
20497;SDS011;10407;53.238;10.448;2022-11-14T11:23:12;40.40;;;19.67;;
20497;SDS011;10407;53.238;10.448;2022-11-14T11:25:37;48.80;;;23.13;;
20497;SDS011;10407;53.238;10.448;2022-11-14T11:28:16;41.10;;;23.73;;
20497;SDS011;10407;53.238;10.448;2022-11-14T11:30:55;42.60;;;22.60;;
20497;SDS011;10407;53.238;10.448;2022-11-14T11:33:28;45.63;;;22.43;;
20497;SDS011;10407;53.238;10.448;2022-11-14T11:36:09;41.10;;;21.97;;
20497;SDS011;10407;53.238;10.448;2022-11-14T11:38:39;44.03;;;22.10;;
20497;SDS011;10407;53.238;10.448;2022-11-14T11:43:58;47.97;;;22.70;;
20497;SDS011;10407;53.238;10.448;2022-11-14T11:46:34;45.17;;;23.07;;
20497;SDS011;10407;53.238;10.448;2022-11-14T11:49:10;56.83;;;25.87;;
20497;SDS011;10407;53.238;10.448;2022-11-14T11:51:45;45.23;;;24.93;;
20497;SDS011;10407;53.238;10.448;2022-11-14T11:54:16;44.97;;;23.00;;
20497;SDS011;10407;53.238;10.448;2022-11-14T11:56:46;43.57;;;23.70;;
20497;SDS011;10407;53.238;10.448;2022-11-14T11:59:18;42.83;;;24.07;;
20497;SDS011;10407;53.238;10.448;2022-11-14T12:01:47;41.90;;;22.97;;
20497;SDS011;10407;53.238;10.448;2022-11-14T12:04:17;46.63;;;23.53;;
20497;SDS011;10407;53.238;10.448;2022-11-14T12:06:51;45.27;;;23.17;;
20497;SDS011;10407;53.238;10.448;2022-11-14T12:09:19;42.07;;;23.03;;
20497;SDS011;10407;53.238;10.448;2022-11-14T12:12:00;39.47;;;20.43;;
20497;SDS011;10407;53.238;10.448;2022-11-14T12:14:35;41.90;;;21.13;;
20497;SDS011;10407;53.238;10.448;2022-11-14T12:20:19;42.30;;;20.60;;
20497;SDS011;10407;53.238;10.448;2022-11-14T12:26:02;42.77;;;23.07;;
20497;SDS011;10407;53.238;10.448;2022-11-14T12:31:24;41.83;;;21.43;;
20497;SDS011;10407;53.238;10.448;2022-11-14T12:33:58;48.67;;;23.10;;
20497;SDS011;10407;53.238;10.448;2022-11-14T12:36:32;40.70;;;21.60;;
20497;SDS011;10407;53.238;10.448;2022-11-14T12:38:58;40.53;;;22.83;;
20497;SDS011;10407;53.238;10.448;2022-11-14T12:41:29;41.27;;;21.07;;
20497;SDS011;10407;53.238;10.448;2022-11-14T13:11:49;39.70;;;21.77;;
20497;SDS011;10407;53.238;10.448;2022-11-14T13:14:47;42.73;;;21.30;;
20497;SDS011;10407;53.238;10.448;2022-11-14T13:17:35;42.10;;;23.33;;
20497;SDS011;10407;53.238;10.448;2022-11-14T13:28:44;43.97;;;21.00;;
20497;SDS011;10407;53.238;10.448;2022-11-14T13:37:19;43.43;;;23.60;;
20497;SDS011;10407;53.238;10.448;2022-11-14T13:50:35;37.60;;;21.90;;
20497;SDS011;10407;53.238;10.448;2022-11-14T13:53:12;40.30;;;22.20;;
20497;SDS011;10407;53.238;10.448;2022-11-14T14:03:45;40.20;;;21.33;;
20497;SDS011;10407;53.238;10.448;2022-11-14T14:08:59;44.07;;;22.17;;
20497;SDS011;10407;53.238;10.448;2022-11-14T14:11:40;51.10;;;24.17;;
20497;SDS011;10407;53.238;10.448;2022-11-14T14:17:07;37.63;;;21.70;;
20497;SDS011;10407;53.238;10.448;2022-11-14T14:25:27;51.43;;;25.53;;
20497;SDS011;10407;53.238;10.448;2022-11-14T14:28:10;42.30;;;22.00;;
20497;SDS011;10407;53.238;10.448;2022-11-14T14:30:38;46.70;;;21.47;;
20497;SDS011;10407;53.238;10.448;2022-11-14T14:35:50;39.83;;;23.07;;
20497;SDS011;10407;53.238;10.448;2022-11-14T14:38:25;36.53;;;21.10;;
20497;SDS011;10407;53.238;10.448;2022-11-14T14:40:54;41.07;;;20.13;;
20497;SDS011;10407;53.238;10.448;2022-11-14T14:43:27;40.07;;;20.33;;
20497;SDS011;10407;53.238;10.448;2022-11-14T14:45:58;40.13;;;20.50;;
20497;SDS011;10407;53.238;10.448;2022-11-14T14:48:27;36.97;;;20.60;;
20497;SDS011;10407;53.238;10.448;2022-11-14T14:50:57;37.63;;;21.57;;
20497;SDS011;10407;53.238;10.448;2022-11-14T14:53:35;37.40;;;20.40;;
20497;SDS011;10407;53.238;10.448;2022-11-14T14:56:02;40.13;;;20.47;;
20497;SDS011;10407;53.238;10.448;2022-11-14T14:58:32;41.60;;;21.70;;
20497;SDS011;10407;53.238;10.448;2022-11-14T15:01:02;37.43;;;19.63;;
20497;SDS011;10407;53.238;10.448;2022-11-14T15:03:38;35.07;;;18.27;;
20497;SDS011;10407;53.238;10.448;2022-11-14T15:09:03;42.03;;;21.27;;
20497;SDS011;10407;53.238;10.448;2022-11-14T15:11:26;33.57;;;18.73;;
20497;SDS011;10407;53.238;10.448;2022-11-14T15:13:55;40.23;;;21.57;;
20497;SDS011;10407;53.238;10.448;2022-11-14T15:16:24;44.97;;;20.80;;
20497;SDS011;10407;53.238;10.448;2022-11-14T15:18:53;37.57;;;20.87;;
20497;SDS011;10407;53.238;10.448;2022-11-14T15:21:24;39.27;;;19.77;;
20497;SDS011;10407;53.238;10.448;2022-11-14T15:24:02;44.50;;;21.03;;
20497;SDS011;10407;53.238;10.448;2022-11-14T15:26:30;38.53;;;20.13;;
20497;SDS011;10407;53.238;10.448;2022-11-14T15:29:06;39.80;;;20.30;;
20497;SDS011;10407;53.238;10.448;2022-11-14T15:31:50;39.80;;;19.30;;
20497;SDS011;10407;53.238;10.448;2022-11-14T15:37:16;37.87;;;19.60;;
20497;SDS011;10407;53.238;10.448;2022-11-14T15:39:39;42.23;;;20.70;;
20497;SDS011;10407;53.238;10.448;2022-11-14T15:42:11;39.57;;;20.17;;
20497;SDS011;10407;53.238;10.448;2022-11-14T15:44:53;41.87;;;20.90;;
20497;SDS011;10407;53.238;10.448;2022-11-14T15:47:24;37.43;;;19.57;;
20497;SDS011;10407;53.238;10.448;2022-11-14T15:50:04;46.40;;;21.50;;
20497;SDS011;10407;53.238;10.448;2022-11-14T15:52:37;38.17;;;20.80;;
20497;SDS011;10407;53.238;10.448;2022-11-14T15:55:17;42.97;;;22.17;;
20497;SDS011;10407;53.238;10.448;2022-11-14T15:57:46;44.20;;;22.53;;
20497;SDS011;10407;53.238;10.448;2022-11-14T16:00:13;39.83;;;20.20;;
20497;SDS011;10407;53.238;10.448;2022-11-14T16:02:53;39.37;;;21.83;;
20497;SDS011;10407;53.238;10.448;2022-11-14T16:05:28;38.23;;;22.20;;
20497;SDS011;10407;53.238;10.448;2022-11-14T16:07:56;38.13;;;21.23;;
20497;SDS011;10407;53.238;10.448;2022-11-14T16:10:25;40.13;;;21.47;;
20497;SDS011;10407;53.238;10.448;2022-11-14T16:12:53;48.00;;;22.57;;
20497;SDS011;10407;53.238;10.448;2022-11-14T16:15:20;40.83;;;20.47;;
20497;SDS011;10407;53.238;10.448;2022-11-14T16:17:48;49.87;;;25.90;;
20497;SDS011;10407;53.238;10.448;2022-11-14T16:20:17;46.40;;;22.10;;
20497;SDS011;10407;53.238;10.448;2022-11-14T16:22:47;39.83;;;21.67;;
20497;SDS011;10407;53.238;10.448;2022-11-14T16:25:15;50.30;;;22.83;;
20497;SDS011;10407;53.238;10.448;2022-11-14T16:27:47;43.53;;;22.47;;
20497;SDS011;10407;53.238;10.448;2022-11-14T16:30:16;41.67;;;22.50;;